Time;durP1;ratioP1;P1;durP2;ratioP2;P2;SDS_P1;SDS_P2;PMS_P1;PMS_P2;Temp;Humidity;BMP_temperature;BMP_pressure;BME280_temperature;BME280_humidity;BME280_pressure;Samples;Min_cycle;Max_cycle;Signal;HPM_P1;HPM_P2
2022/12/09 00:01:13;;;;;;;;;;;;;;;;;;5100140;28;1055;-83
2022/12/09 00:03:39;;;;;;;;;;;;;;;;;;5097947;28;2048;-83
2022/12/09 00:06:05;;;;;;;;;;;;;;;;;;5099099;28;1111;-83
2022/12/09 00:08:31;;;;;;;;;;;;;;;;;;5080965;28;1942;-82
2022/12/09 00:10:57;;;;;;;;;;;;;;;;;;5079990;28;1230;-82
2022/12/09 00:13:24;;;;;;;;;;;;;;;;;;5080451;28;1096;-82
2022/12/09 00:15:50;;;;;;;;;;;;;;;;;;5080197;28;1134;-81
2022/12/09 00:18:16;;;;;;;;;;;;;;;;;;5080743;28;1427;-82
2022/12/09 00:20:42;;;;;;;;;;;;;;;;;;5080412;28;1202;-81
2022/12/09 00:23:08;;;;;;;;;;;;;;;;;;5080129;28;1258;-81
2022/12/09 00:25:34;;;;;;;;;;;;;;;;;;5079838;28;977;-81
2022/12/09 00:28:00;;;;;;;;;;;;;;;;;;5081501;28;1977;-82
2022/12/09 00:30:26;;;;;;;;;;;;;;;;;;5080952;28;1412;-82
2022/12/09 00:32:52;;;;;;;;;;;;;;;;;;5079551;28;997;-82
2022/12/09 00:35:18;;;;;;;;;;;;;;;;;;5081803;28;1064;-81
2022/12/09 00:37:44;;;;;;;;;;;;;;;;;;5081750;28;763;-82
2022/12/09 00:40:10;;;;;;;;;;;;;;;;;;5090859;28;1694;-82
2022/12/09 00:42:37;;;;;;;;;;;;;;;;;;5084897;28;1218;-81
2022/12/09 00:45:03;;;;;;;;;;;;;;;;;;5081522;28;1083;-81
2022/12/09 00:47:29;;;;;;;;;;;;;;;;;;5080500;28;1906;-81
2022/12/09 00:49:55;;;;;;;;;;;;;;;;;;5089143;28;1312;-81
2022/12/09 00:52:21;;;;;;;;;;;;;;;;;;5102091;28;1067;-81
2022/12/09 00:54:47;;;;;;;;;;;;;;;;;;5101575;28;1094;-81
2022/12/09 00:57:13;;;;;;;;;;;;;;;;;;5100306;28;1168;-81
2022/12/09 00:59:39;;;;;;;;;;;;;;;;;;5101437;28;1316;-80
2022/12/09 01:02:05;;;;;;;;;;;;;;;;;;5099517;28;1193;-81
2022/12/09 01:04:31;;;;;;;;;;;;;;;;;;5099254;28;1221;-80
2022/12/09 01:06:58;;;;;;;;;;;;;;;;;;5100929;28;1590;-80
2022/12/09 01:09:24;;;;;;;;;;;;;;;;;;5118842;28;1980;-81
2022/12/09 01:11:50;;;;;;;;;;;;;;;;;;5119339;28;1094;-80
2022/12/09 01:14:16;;;;;;;;;;;;;;;;;;5119977;28;1083;-79
2022/12/09 01:16:42;;;;;;;;;;;;;;;;;;5118843;28;1303;-80
2022/12/09 01:19:08;;;;;;;;;;;;;;;;;;5118664;28;1419;-80
2022/12/09 01:21:34;;;;;;;;;;;;;;;;;;5119082;28;940;-80
2022/12/09 01:24:00;;;;;;;;;;;;;;;;;;5118275;28;1128;-80
2022/12/09 01:26:26;;;;;;;;;;;;;;;;;;5117210;28;1199;-80
2022/12/09 01:28:54;;;;;;;;;;;;;;;;;;5118447;28;1913;-80
2022/12/09 01:31:20;;;;;;;;;;;;;;;;;;5116741;28;1164;-79
2022/12/09 01:33:46;;;;;;;;;;;;;;;;;;5118303;28;762;-80
2022/12/09 01:36:12;;;;;;;;;;;;;;;;;;5117362;28;1372;-80
2022/12/09 01:38:40;;;;;;;;;;;;;;;;;;5116757;28;1366;-79
2022/12/09 01:41:06;;;;;;;;;;;;;;;;;;5117587;28;1298;-80
2022/12/09 01:43:32;;;;;;;;;;;;;;;;;;5117178;28;1141;-79
2022/12/09 01:45:58;;;;;;;;;;;;;;;;;;5117553;28;1134;-80
2022/12/09 01:48:24;;;;;;;;;;;;;;;;;;5116230;28;1948;-80
2022/12/09 01:50:50;;;;;;;;;;;;;;;;;;5117320;28;1054;-80
2022/12/09 01:53:16;;;;;;;;;;;;;;;;;;5116046;28;924;-80
2022/12/09 01:55:42;;;;;;;;;;;;;;;;;;5105603;28;1173;-79
2022/12/09 01:58:09;;;;;;;;;;;;;;;;;;5093642;28;2017;-79
2022/12/09 02:00:35;;;;;;;;;;;;;;;;;;5091636;28;2045;-79
2022/12/09 02:03:02;;;;;;;;;;;;;;;;;;5083723;28;1528;-80
2022/12/09 02:05:28;;;;;;;;;;;;;;;;;;5074548;28;1103;-80
2022/12/09 02:07:58;;;;;;;;;;;;;;;;;;5074698;28;1895;-80
2022/12/09 02:10:24;;;;;;;;;;;;;;;;;;5074738;28;1371;-79
2022/12/09 02:12:56;;;;;;;;;;;;;;;;;;5076165;28;1404;-79
2022/12/09 02:15:22;;;;;;;;;;;;;;;;;;5077207;28;1388;-79
2022/12/09 02:17:49;;;;;;;;;;;;;;;;;;5074923;28;1309;-79
2022/12/09 02:20:15;;;;;;;;;;;;;;;;;;5074832;28;1423;-79
2022/12/09 02:22:41;;;;;;;;;;;;;;;;;;5074209;28;1303;-79
2022/12/09 02:25:08;;;;;;;;;;;;;;;;;;5075883;28;770;-80
2022/12/09 02:27:34;;;;;;;;;;;;;;;;;;5074677;28;1358;-79
2022/12/09 02:30:01;;;;;;;;;;;;;;;;;;5076960;28;1975;-80
2022/12/09 02:32:27;;;;;;;;;;;;;;;;;;5074965;28;1269;-80
2022/12/09 02:34:53;;;;;;;;;;;;;;;;;;5077126;28;1013;-80
2022/12/09 02:37:19;;;;;;;;;;;;;;;;;;5073690;28;1273;-79
2022/12/09 02:39:49;;;;;;;;;;;;;;;;;;5079669;28;1644;-80
2022/12/09 02:42:15;;;;;;;;;;;;;;;;;;5083015;28;2156;-78
2022/12/09 02:44:41;;;;;;;;;;;;;;;;;;5091842;28;1740;-79
2022/12/09 02:47:09;;;;;;;;;;;;;;;;;;5092545;28;2053;-79
2022/12/09 02:49:35;;;;;;;;;;;;;;;;;;5094856;28;1921;-79
2022/12/09 02:52:01;;;;;;;;;;;;;;;;;;5097147;28;1232;-80
2022/12/09 02:54:27;;;;;;;;;;;;;;;;;;5097865;28;1170;-79
2022/12/09 02:56:53;;;;;;;;;;;;;;;;;;5098611;28;1090;-80
2022/12/09 02:59:20;;;;;;;;;;;;;;;;;;5097466;28;1449;-80
2022/12/09 03:01:46;;;;;;;;;;;;;;;;;;5097853;28;944;-79
2022/12/09 03:04:12;;;;;;;;;;;;;;;;;;5099331;28;967;-80
2022/12/09 03:06:38;;;;;;;;;;;;;;;;;;5101635;28;1514;-80
2022/12/09 03:09:04;;;;;;;;;;;;;;;;;;5099041;28;1977;-79
2022/12/09 03:11:30;;;;;;;;;;;;;;;;;;5097880;28;834;-79
2022/12/09 03:13:58;;;;;;;;;;;;;;;;;;5098740;28;1111;-80
2022/12/09 03:16:24;;;;;;;;;;;;;;;;;;5101577;28;1035;-80
2022/12/09 03:18:51;;;;;;;;;;;;;;;;;;5101370;28;1428;-79
2022/12/09 03:21:18;;;;;;;;;;;;;;;;;;5100741;28;1063;-79
2022/12/09 03:23:44;;;;;;;;;;;;;;;;;;5101313;28;1060;-79
2022/12/09 03:26:10;;;;;;;;;;;;;;;;;;5101378;28;881;-80
2022/12/09 03:28:36;;;;;;;;;;;;;;;;;;5100288;28;1933;-80
2022/12/09 03:31:02;;;;;;;;;;;;;;;;;;5100941;28;1329;-80
2022/12/09 03:33:29;;;;;;;;;;;;;;;;;;5100537;28;888;-79
2022/12/09 03:35:55;;;;;;;;;;;;;;;;;;5099915;28;1191;-80
2022/12/09 03:38:21;;;;;;;;;;;;;;;;;;5101057;28;1476;-79
2022/12/09 03:40:47;;;;;;;;;;;;;;;;;;5100568;28;1222;-79
2022/12/09 03:43:13;;;;;;;;;;;;;;;;;;5100516;28;1007;-80
2022/12/09 03:45:39;;;;;;;;;;;;;;;;;;5100746;28;1233;-80
2022/12/09 03:48:05;;;;;;;;;;;;;;;;;;5101220;28;1054;-80
2022/12/09 03:50:31;;;;;;;;;;;;;;;;;;5099069;28;1952;-79
2022/12/09 03:52:57;;;;;;;;;;;;;;;;;;5100836;28;1274;-79
2022/12/09 03:55:23;;;;;;;;;;;;;;;;;;5100713;28;960;-79
2022/12/09 03:57:49;;;;;;;;;;;;;;;;;;5099187;28;1178;-80
2022/12/09 04:00:16;;;;;;;;;;;;;;;;;;5100449;28;1413;-80
2022/12/09 04:02:42;;;;;;;;;;;;;;;;;;5099451;28;980;-80
2022/12/09 04:05:09;;;;;;;;;;;;;;;;;;5098909;28;1233;-80
2022/12/09 04:07:35;;;;;;;;;;;;;;;;;;5099019;28;1386;-80
2022/12/09 04:10:01;;;;;;;;;;;;;;;;;;5093339;28;2034;-78
2022/12/09 04:12:27;;;;;;;;;;;;;;;;;;5098432;28;1157;-78
2022/12/09 04:14:53;;;;;;;;;;;;;;;;;;5100023;28;786;-78
2022/12/09 04:17:19;;;;;;;;;;;;;;;;;;5099749;28;884;-79
2022/12/09 04:19:46;;;;;;;;;;;;;;;;;;5099600;28;1391;-78
2022/12/09 04:22:12;;;;;;;;;;;;;;;;;;5099149;28;1118;-78
2022/12/09 04:24:38;;;;;;;;;;;;;;;;;;5099945;28;1752;-78
2022/12/09 04:27:04;;;;;;;;;;;;;;;;;;5100196;28;1225;-78
2022/12/09 04:29:30;;;;;;;;;;;;;;;;;;5101444;28;1895;-79
2022/12/09 04:31:56;;;;;;;;;;;;;;;;;;5106400;28;1262;-77
2022/12/09 04:34:22;;;;;;;;;;;;;;;;;;5113931;28;1088;-77
2022/12/09 04:36:48;;;;;;;;;;;;;;;;;;5102530;28;2042;-79
2022/12/09 04:39:14;;;;;;;;;;;;;;;;;;5108822;28;1746;-77
2022/12/09 04:41:40;;;;;;;;;;;;;;;;;;5084447;28;1184;-79
2022/12/09 04:44:06;;;;;;;;;;;;;;;;;;5078872;28;837;-78
2022/12/09 04:46:32;;;;;;;;;;;;;;;;;;5078911;28;1068;-78
2022/12/09 04:48:58;;;;;;;;;;;;;;;;;;5078189;28;1894;-78
2022/12/09 04:51:25;;;;;;;;;;;;;;;;;;5084364;22;1982;-73
2022/12/09 04:53:51;;;;;;;;;;;;;;;;;;5072829;28;1130;-73
2022/12/09 04:56:17;;;;;;;;;;;;;;;;;;5072969;28;815;-73
2022/12/09 04:58:43;;;;;;;;;;;;;;;;;;5073523;28;1123;-75
2022/12/09 05:01:09;;;;;;;;;;;;;;;;;;5072878;28;1299;-74
2022/12/09 05:03:35;;;;;;;;;;;;;;;;;;5072369;28;640;-73
2022/12/09 05:06:02;;;;;;;;;;;;;;;;;;5042864;28;1456;-75
2022/12/09 05:08:28;;;;;;;;;;;;;;;;;;5052829;28;921;-75
2022/12/09 05:10:54;;;;;;;;;;;;;;;;;;5030855;28;1984;-74
2022/12/09 05:13:20;;;;;;;;;;;;;;;;;;5026760;28;1799;-73
2022/12/09 05:15:46;;;;;;;;;;;;;;;;;;5037222;28;1452;-73
2022/12/09 05:18:12;;;;;;;;;;;;;;;;;;5052577;28;1235;-72
2022/12/09 05:20:38;;;;;;;;;;;;;;;;;;5056351;28;1283;-73
2022/12/09 05:23:05;;;;;;;;;;;;;;;;;;5044964;28;1437;-73
2022/12/09 05:25:31;;;;;;;;;;;;;;;;;;5026059;28;1479;-72
2022/12/09 05:27:57;;;;;;;;;;;;;;;;;;5051234;28;1370;-73
2022/12/09 05:30:23;;;;;;;;;;;;;;;;;;5050054;28;1922;-72
2022/12/09 05:32:49;;;;;;;;;;;;;;;;;;5036919;28;1190;-72
2022/12/09 05:35:15;;;;;;;;;;;;;;;;;;5035982;28;1239;-73
2022/12/09 05:37:41;;;;;;;;;;;;;;;;;;5051297;28;1405;-72
2022/12/09 05:40:07;;;;;;;;;;;;;;;;;;5048144;28;1582;-72
2022/12/09 05:42:33;;;;;;;;;;;;;;;;;;5027907;28;1412;-72
2022/12/09 05:44:59;;;;;;;;;;;;;;;;;;5042639;28;1449;-73
2022/12/09 05:47:25;;;;;;;;;;;;;;;;;;5051178;28;1452;-74
2022/12/09 05:49:52;;;;;;;;;;;;;;;;;;5029526;28;1919;-72
2022/12/09 05:52:18;;;;;;;;;;;;;;;;;;5042443;28;1205;-72
2022/12/09 05:54:44;;;;;;;;;;;;;;;;;;5051959;28;1178;-73
2022/12/09 05:57:10;;;;;;;;;;;;;;;;;;5051919;28;885;-72
2022/12/09 05:59:36;;;;;;;;;;;;;;;;;;5051773;28;1440;-75
2022/12/09 06:02:02;;;;;;;;;;;;;;;;;;5051249;28;1395;-74
2022/12/09 06:04:28;;;;;;;;;;;;;;;;;;5051555;28;1234;-73
2022/12/09 06:06:54;;;;;;;;;;;;;;;;;;5062407;28;1457;-73
2022/12/09 06:09:20;;;;;;;;;;;;;;;;;;5054203;28;1910;-72
2022/12/09 06:11:46;;;;;;;;;;;;;;;;;;5051032;28;1286;-73
2022/12/09 06:14:13;;;;;;;;;;;;;;;;;;5051603;28;1079;-71
2022/12/09 06:16:39;;;;;;;;;;;;;;;;;;5051676;28;819;-72
2022/12/09 06:19:05;;;;;;;;;;;;;;;;;;5051574;28;1056;-72
2022/12/09 06:21:31;;;;;;;;;;;;;;;;;;5050983;28;1246;-73
2022/12/09 06:23:57;;;;;;;;;;;;;;;;;;5050860;28;796;-72
2022/12/09 06:26:23;;;;;;;;;;;;;;;;;;5051393;28;1048;-73
2022/12/09 06:28:49;;;;;;;;;;;;;;;;;;5043372;28;1454;-72
2022/12/09 06:31:15;;;;;;;;;;;;;;;;;;5042860;28;1977;-72
2022/12/09 06:33:41;;;;;;;;;;;;;;;;;;5023595;28;1426;-73
2022/12/09 06:36:07;;;;;;;;;;;;;;;;;;5027537;28;1463;-73
2022/12/09 06:38:33;;;;;;;;;;;;;;;;;;5044724;28;1120;-73
2022/12/09 06:40:59;;;;;;;;;;;;;;;;;;5051398;28;1305;-73
2022/12/09 06:43:25;;;;;;;;;;;;;;;;;;5050421;28;1064;-73
2022/12/09 06:45:52;;;;;;;;;;;;;;;;;;5031557;28;1434;-73
2022/12/09 06:48:18;;;;;;;;;;;;;;;;;;5050826;28;1222;-74
2022/12/09 06:50:44;;;;;;;;;;;;;;;;;;5051053;28;1987;-73
2022/12/09 06:53:10;;;;;;;;;;;;;;;;;;5021888;28;1486;-75
2022/12/09 06:55:36;;;;;;;;;;;;;;;;;;5047816;28;1412;-73
2022/12/09 06:58:02;;;;;;;;;;;;;;;;;;5050977;28;1229;-73
2022/12/09 07:00:28;;;;;;;;;;;;;;;;;;5037791;28;1397;-73
2022/12/09 07:02:54;;;;;;;;;;;;;;;;;;5067176;28;1157;-73
2022/12/09 07:05:20;;;;;;;;;;;;;;;;;;5067915;28;1124;-73
2022/12/09 07:07:46;;;;;;;;;;;;;;;;;;5031135;28;865;-73
2022/12/09 07:10:12;;;;;;;;;;;;;;;;;;5039821;28;1922;-73
2022/12/09 07:12:38;;;;;;;;;;;;;;;;;;5032211;28;1122;-73
2022/12/09 07:15:05;;;;;;;;;;;;;;;;;;5050881;28;1094;-73
2022/12/09 07:17:31;;;;;;;;;;;;;;;;;;5051747;28;1232;-73
2022/12/09 07:19:57;;;;;;;;;;;;;;;;;;5046997;28;1381;-73
2022/12/09 07:22:23;;;;;;;;;;;;;;;;;;5069729;28;1152;-73
2022/12/09 07:24:49;;;;;;;;;;;;;;;;;;5067740;28;1330;-73
2022/12/09 07:27:15;;;;;;;;;;;;;;;;;;5061315;28;1172;-73
2022/12/09 07:29:42;;;;;;;;;;;;;;;;;;5059345;28;1914;-73
2022/12/09 07:32:08;;;;;;;;;;;;;;;;;;5041426;28;1317;-73
2022/12/09 07:34:34;;;;;;;;;;;;;;;;;;5050749;28;706;-72
2022/12/09 07:37:00;;;;;;;;;;;;;;;;;;5036819;28;1180;-73
2022/12/09 07:39:26;;;;;;;;;;;;;;;;;;5056959;28;1168;-72
2022/12/09 07:41:52;;;;;;;;;;;;;;;;;;5063178;28;1499;-73
2022/12/09 07:44:18;;;;;;;;;;;;;;;;;;5062185;28;1263;-71
2022/12/09 07:46:44;;;;;;;;;;;;;;;;;;5064806;28;1263;-74
2022/12/09 07:49:11;;;;;;;;;;;;;;;;;;5056945;28;1259;-74
2022/12/09 07:51:37;;;;;;;;;;;;;;;;;;5052701;28;1981;-74
2022/12/09 07:54:03;;;;;;;;;;;;;;;;;;5053551;28;1122;-75
2022/12/09 07:56:29;;;;;;;;;;;;;;;;;;5053558;28;898;-73
2022/12/09 07:58:55;;;;;;;;;;;;;;;;;;5053824;28;1114;-73
2022/12/09 08:01:21;;;;;;;;;;;;;;;;;;5052771;28;1337;-73
2022/12/09 08:03:48;;;;;;;;;;;;;;;;;;5053495;28;920;-74
2022/12/09 08:06:14;;;;;;;;;;;;;;;;;;5052436;28;1158;-74
2022/12/09 08:08:40;;;;;;;;;;;;;;;;;;5053089;28;1059;-74
2022/12/09 08:11:06;;;;;;;;;;;;;;;;;;5052786;28;1914;-74
2022/12/09 08:13:32;;;;;;;;;;;;;;;;;;5065888;28;1162;-74
2022/12/09 08:15:58;;;;;;;;;;;;;;;;;;5073200;28;1096;-73
2022/12/09 08:18:24;;;;;;;;;;;;;;;;;;5072440;28;865;-73
2022/12/09 08:20:50;;;;;;;;;;;;;;;;;;5073003;28;1357;-74
2022/12/09 08:23:16;;;;;;;;;;;;;;;;;;5072345;28;834;-73
2022/12/09 08:25:42;;;;;;;;;;;;;;;;;;5072964;28;859;-73
2022/12/09 08:28:08;;;;;;;;;;;;;;;;;;5073228;28;1029;-73
2022/12/09 08:30:34;;;;;;;;;;;;;;;;;;5071447;28;1973;-74
2022/12/09 08:33:00;;;;;;;;;;;;;;;;;;5074630;28;1126;-74
2022/12/09 08:35:28;;;;;;;;;;;;;;;;;;5059086;28;945;-74
2022/12/09 08:37:54;;;;;;;;;;;;;;;;;;5036809;28;1252;-73
2022/12/09 08:40:20;;;;;;;;;;;;;;;;;;5053252;28;1317;-73
2022/12/09 08:42:46;;;;;;;;;;;;;;;;;;5052162;28;1064;-74
2022/12/09 08:45:13;;;;;;;;;;;;;;;;;;5049018;28;1088;-74
2022/12/09 08:47:39;;;;;;;;;;;;;;;;;;5051482;28;913;-71
2022/12/09 08:50:05;;;;;;;;;;;;;;;;;;5051668;28;1962;-73
2022/12/09 08:52:31;;;;;;;;;;;;;;;;;;5051853;28;1444;-74
2022/12/09 08:54:57;;;;;;;;;;;;;;;;;;5052503;28;1096;-74
2022/12/09 08:57:23;;;;;;;;;;;;;;;;;;5052620;28;799;-73
2022/12/09 08:59:49;;;;;;;;;;;;;;;;;;5052625;28;990;-74
2022/12/09 09:02:15;;;;;;;;;;;;;;;;;;5062961;28;1558;-73
2022/12/09 09:04:41;;;;;;;;;;;;;;;;;;5072327;28;1099;-74
2022/12/09 09:07:07;;;;;;;;;;;;;;;;;;5072377;28;928;-74
2022/12/09 09:09:33;;;;;;;;;;;;;;;;;;5072160;28;825;-73
2022/12/09 09:11:59;;;;;;;;;;;;;;;;;;5071306;28;1914;-74
2022/12/09 09:14:26;;;;;;;;;;;;;;;;;;5071961;28;822;-74
2022/12/09 09:16:52;;;;;;;;;;;;;;;;;;5072467;28;996;-71
2022/12/09 09:19:18;;;;;;;;;;;;;;;;;;5071844;28;944;-74
2022/12/09 09:21:44;;;;;;;;;;;;;;;;;;5046055;28;1413;-74
2022/12/09 09:24:10;;;;;;;;;;;;;;;;;;5071955;28;877;-74
2022/12/09 09:26:36;;;;;;;;;;;;;;;;;;5070288;28;794;-75
2022/12/09 09:29:02;;;;;;;;;;;;;;;;;;5051346;28;1100;-74
2022/12/09 09:31:29;;;;;;;;;;;;;;;;;;5051264;28;1973;-74
2022/12/09 09:33:55;;;;;;;;;;;;;;;;;;5051897;28;1071;-74
2022/12/09 09:36:21;;;;;;;;;;;;;;;;;;5051659;28;1032;-75
2022/12/09 09:38:47;;;;;;;;;;;;;;;;;;5051790;28;1139;-75
2022/12/09 09:41:13;;;;;;;;;;;;;;;;;;5051202;28;1467;-74
2022/12/09 09:43:39;;;;;;;;;;;;;;;;;;5051361;28;1372;-74
2022/12/09 09:46:05;;;;;;;;;;;;;;;;;;5051740;28;882;-75
2022/12/09 09:48:32;;;;;;;;;;;;;;;;;;5051343;28;807;-75
2022/12/09 09:50:58;;;;;;;;;;;;;;;;;;5051251;28;2062;-73
2022/12/09 09:53:24;;;;;;;;;;;;;;;;;;5050737;28;972;-72
2022/12/09 09:55:50;;;;;;;;;;;;;;;;;;5051544;28;1071;-73
2022/12/09 09:58:16;;;;;;;;;;;;;;;;;;5051278;28;1060;-72
2022/12/09 10:00:42;;;;;;;;;;;;;;;;;;5033823;28;1398;-75
2022/12/09 10:03:08;;;;;;;;;;;;;;;;;;5051269;28;849;-74
2022/12/09 10:05:35;;;;;;;;;;;;;;;;;;5050855;28;1186;-74
2022/12/09 10:08:01;;;;;;;;;;;;;;;;;;5051274;28;1088;-73
2022/12/09 10:10:27;;;;;;;;;;;;;;;;;;5035392;28;1977;-74
2022/12/09 10:12:53;;;;;;;;;;;;;;;;;;5030648;28;1064;-74
2022/12/09 10:15:19;;;;;;;;;;;;;;;;;;5031409;28;926;-73
2022/12/09 10:17:45;;;;;;;;;;;;;;;;;;5031154;28;834;-73
2022/12/09 10:20:11;;;;;;;;;;;;;;;;;;5031164;28;1439;-74
2022/12/09 10:22:38;;;;;;;;;;;;;;;;;;5030528;28;1110;-72
2022/12/09 10:25:04;;;;;;;;;;;;;;;;;;5030959;28;1119;-72
2022/12/09 10:27:30;;;;;;;;;;;;;;;;;;5031086;28;1048;-75
2022/12/09 10:29:56;;;;;;;;;;;;;;;;;;5013249;28;1336;-73
2022/12/09 10:32:22;;;;;;;;;;;;;;;;;;5030670;28;1981;-73
2022/12/09 10:34:48;;;;;;;;;;;;;;;;;;5013440;28;1061;-72
2022/12/09 10:37:14;;;;;;;;;;;;;;;;;;5031124;28;1143;-73
2022/12/09 10:39:40;;;;;;;;;;;;;;;;;;5030771;28;938;-74
2022/12/09 10:44:50;;;;;;;;;;;;;;;;;;5030630;28;1042;-72
2022/12/09 10:47:16;;;;;;;;;;;;;;;;;;5031084;28;1059;-74
2022/12/09 10:49:42;;;;;;;;;;;;;;;;;;5032972;28;1465;-74
2022/12/09 10:52:08;;;;;;;;;;;;;;;;;;5032011;28;1930;-74
2022/12/09 10:54:34;;;;;;;;;;;;;;;;;;5050694;28;1111;-73
2022/12/09 10:57:00;;;;;;;;;;;;;;;;;;5050691;28;906;-74
2022/12/09 10:59:28;;;;;;;;;;;;;;;;;;5032762;28;1324;-74
2022/12/09 11:01:54;;;;;;;;;;;;;;;;;;5031857;28;1318;-73
2022/12/09 11:04:20;;;;;;;;;;;;;;;;;;5050548;28;1091;-73
2022/12/09 11:06:46;;;;;;;;;;;;;;;;;;5050746;28;1142;-73
2022/12/09 11:09:12;;;;;;;;;;;;;;;;;;5050532;28;1024;-73
2022/12/09 11:11:38;;;;;;;;;;;;;;;;;;5063941;22;3606;-77
2022/12/09 11:14:04;;;;;;;;;;;;;;;;;;5064170;28;1070;-78
2022/12/09 11:16:31;;;;;;;;;;;;;;;;;;5058626;28;1410;-77
2022/12/09 11:18:57;;;;;;;;;;;;;;;;;;5072610;28;1170;-77
2022/12/09 11:21:23;;;;;;;;;;;;;;;;;;5073306;28;1422;-77
2022/12/09 11:23:49;;;;;;;;;;;;;;;;;;5073730;28;1134;-77
2022/12/09 11:26:15;;;;;;;;;;;;;;;;;;5055076;28;1188;-77
2022/12/09 11:28:41;;;;;;;;;;;;;;;;;;5054763;28;1004;-78
2022/12/09 11:31:07;;;;;;;;;;;;;;;;;;5054556;28;1914;-78
2022/12/09 11:33:34;;;;;;;;;;;;;;;;;;5052135;28;1163;-76
2022/12/09 11:36:00;;;;;;;;;;;;;;;;;;5054907;28;962;-76
2022/12/09 11:38:26;;;;;;;;;;;;;;;;;;5052698;28;1403;-77
2022/12/09 11:40:52;;;;;;;;;;;;;;;;;;5090288;28;1485;-78
2022/12/09 11:43:18;;;;;;;;;;;;;;;;;;5074953;28;1237;-79
2022/12/09 11:45:45;;;;;;;;;;;;;;;;;;5073664;28;1446;-77
2022/12/09 11:48:11;;;;;;;;;;;;;;;;;;5042441;28;1569;-77
2022/12/09 11:50:40;;;;;;;;;;;;;;;;;;5005229;28;2028;-77
2022/12/09 11:53:07;;;;;;;;;;;;;;;;;;5012726;28;932;-77
2022/12/09 11:55:33;;;;;;;;;;;;;;;;;;5009681;28;802;-78
2022/12/09 11:57:59;;;;;;;;;;;;;;;;;;5014869;28;802;-77
2022/12/09 12:00:26;;;;;;;;;;;;;;;;;;5008962;28;1419;-77
2022/12/09 12:02:52;;;;;;;;;;;;;;;;;;5007709;28;1254;-78
2022/12/09 12:05:19;;;;;;;;;;;;;;;;;;5002905;28;775;-77
2022/12/09 12:07:45;;;;;;;;;;;;;;;;;;4995543;28;1064;-77
2022/12/09 12:10:12;;;;;;;;;;;;;;;;;;5011680;28;1375;-78
2022/12/09 12:12:38;;;;;;;;;;;;;;;;;;5011472;28;1931;-78
2022/12/09 12:15:04;;;;;;;;;;;;;;;;;;5012134;28;913;-76
2022/12/09 12:17:30;;;;;;;;;;;;;;;;;;5011941;28;893;-77
2022/12/09 12:19:57;;;;;;;;;;;;;;;;;;5011266;28;893;-77
2022/12/09 12:22:23;;;;;;;;;;;;;;;;;;5008935;28;1311;-78
2022/12/09 12:24:49;;;;;;;;;;;;;;;;;;5010592;28;1106;-77
2022/12/09 12:27:15;;;;;;;;;;;;;;;;;;5016088;28;1389;-78
2022/12/09 12:29:42;;;;;;;;;;;;;;;;;;5074324;28;1553;-78
2022/12/09 12:32:08;;;;;;;;;;;;;;;;;;5074905;28;1918;-79
2022/12/09 12:34:34;;;;;;;;;;;;;;;;;;5064691;28;1497;-78
2022/12/09 12:37:00;;;;;;;;;;;;;;;;;;5078401;28;1345;-79
2022/12/09 12:39:26;;;;;;;;;;;;;;;;;;5076916;28;1622;-78
2022/12/09 12:41:52;;;;;;;;;;;;;;;;;;5074450;28;1497;-77
2022/12/09 12:47:02;;;;;;;;;;;;;;;;;;5056437;28;852;-78
2022/12/09 12:49:28;;;;;;;;;;;;;;;;;;5055478;28;917;-78
2022/12/09 12:51:54;;;;;;;;;;;;;;;;;;5054510;28;1981;-77
2022/12/09 12:54:20;;;;;;;;;;;;;;;;;;5070310;28;1414;-78
2022/12/09 12:56:47;;;;;;;;;;;;;;;;;;5077256;28;1098;-77
2022/12/09 12:59:13;;;;;;;;;;;;;;;;;;5090669;28;1642;-79
2022/12/09 13:01:39;;;;;;;;;;;;;;;;;;5072533;28;1490;-77
2022/12/09 13:04:05;;;;;;;;;;;;;;;;;;5064836;28;1165;-77
2022/12/09 13:06:31;;;;;;;;;;;;;;;;;;5089998;28;1063;-77
2022/12/09 13:08:57;;;;;;;;;;;;;;;;;;5074722;28;1005;-77
2022/12/09 13:11:23;;;;;;;;;;;;;;;;;;5073726;28;1906;-78
2022/12/09 13:13:49;;;;;;;;;;;;;;;;;;5093396;28;910;-77
2022/12/09 13:16:15;;;;;;;;;;;;;;;;;;5087445;28;1206;-79
2022/12/09 13:18:41;;;;;;;;;;;;;;;;;;5091986;28;1039;-77
2022/12/09 13:21:07;;;;;;;;;;;;;;;;;;5098828;28;1317;-77
2022/12/09 13:23:34;;;;;;;;;;;;;;;;;;5074444;28;1054;-78
2022/12/09 13:26:01;;;;;;;;;;;;;;;;;;5074358;28;899;-79
2022/12/09 13:28:27;;;;;;;;;;;;;;;;;;5073832;28;1027;-77
2022/12/09 13:30:54;;;;;;;;;;;;;;;;;;5073083;28;1977;-77
2022/12/09 13:33:20;;;;;;;;;;;;;;;;;;5072471;28;1050;-77
2022/12/09 13:35:46;;;;;;;;;;;;;;;;;;5074411;28;1058;-78
2022/12/09 13:38:12;;;;;;;;;;;;;;;;;;5073284;28;1051;-77
2022/12/09 13:40:38;;;;;;;;;;;;;;;;;;5072350;28;1444;-78
2022/12/09 13:43:05;;;;;;;;;;;;;;;;;;5087126;28;1111;-77
2022/12/09 13:45:31;;;;;;;;;;;;;;;;;;5072539;28;785;-77
2022/12/09 13:47:57;;;;;;;;;;;;;;;;;;5071749;28;1008;-77
2022/12/09 13:50:23;;;;;;;;;;;;;;;;;;5072119;28;1396;-77
2022/12/09 13:52:49;;;;;;;;;;;;;;;;;;5071436;28;2012;-77
2022/12/09 13:55:15;;;;;;;;;;;;;;;;;;5072298;28;785;-78
2022/12/09 13:57:41;;;;;;;;;;;;;;;;;;5087983;28;1130;-78
2022/12/09 14:00:07;;;;;;;;;;;;;;;;;;5073551;28;702;-78
2022/12/09 14:02:33;;;;;;;;;;;;;;;;;;5075670;28;1336;-78
2022/12/09 14:05:00;;;;;;;;;;;;;;;;;;5074876;28;920;-78
2022/12/09 14:07:26;;;;;;;;;;;;;;;;;;5076620;28;777;-76
2022/12/09 14:09:52;;;;;;;;;;;;;;;;;;5079003;28;1023;-78
2022/12/09 14:12:18;;;;;;;;;;;;;;;;;;5092958;28;1957;-78
2022/12/09 14:14:45;;;;;;;;;;;;;;;;;;5090631;28;1966;-79
2022/12/09 14:17:11;;;;;;;;;;;;;;;;;;5081107;28;1028;-77
2022/12/09 14:19:37;;;;;;;;;;;;;;;;;;5075119;28;873;-78
2022/12/09 14:22:03;;;;;;;;;;;;;;;;;;5072623;28;1363;-77
2022/12/09 14:24:30;;;;;;;;;;;;;;;;;;5073193;28;945;-78
2022/12/09 14:26:56;;;;;;;;;;;;;;;;;;5069150;28;1467;-79
2022/12/09 14:29:22;;;;;;;;;;;;;;;;;;5057646;28;1092;-79
2022/12/09 14:31:48;;;;;;;;;;;;;;;;;;5057907;28;1902;-78
2022/12/09 14:34:14;;;;;;;;;;;;;;;;;;5058304;28;1075;-79
2022/12/09 14:36:40;;;;;;;;;;;;;;;;;;5059178;28;1051;-79
2022/12/09 14:39:06;;;;;;;;;;;;;;;;;;5057597;28;948;-79
2022/12/09 14:41:32;;;;;;;;;;;;;;;;;;5056896;28;1349;-79
2022/12/09 14:43:58;;;;;;;;;;;;;;;;;;5057711;28;742;-79
2022/12/09 14:46:24;;;;;;;;;;;;;;;;;;5058341;28;1071;-79
2022/12/09 14:48:50;;;;;;;;;;;;;;;;;;5057808;28;837;-80
2022/12/09 14:51:17;;;;;;;;;;;;;;;;;;5062833;28;1934;-78
2022/12/09 14:53:43;;;;;;;;;;;;;;;;;;5077947;28;1133;-79
2022/12/09 14:56:09;;;;;;;;;;;;;;;;;;5077729;28;754;-78
2022/12/09 14:58:35;;;;;;;;;;;;;;;;;;5078144;28;1102;-78
2022/12/09 15:01:01;;;;;;;;;;;;;;;;;;5077977;28;1306;-78
2022/12/09 15:03:27;;;;;;;;;;;;;;;;;;5077757;28;1455;-79
2022/12/09 15:05:53;;;;;;;;;;;;;;;;;;5076160;28;1039;-79
2022/12/09 15:08:19;;;;;;;;;;;;;;;;;;5077051;28;992;-78
2022/12/09 15:10:45;;;;;;;;;;;;;;;;;;5077897;28;1388;-79
2022/12/09 15:13:12;;;;;;;;;;;;;;;;;;5076038;28;1890;-77
2022/12/09 15:15:38;;;;;;;;;;;;;;;;;;5078602;28;841;-80
2022/12/09 15:18:04;;;;;;;;;;;;;;;;;;5077858;28;877;-79
2022/12/09 15:20:30;;;;;;;;;;;;;;;;;;5079097;28;1401;-79
2022/12/09 15:22:56;;;;;;;;;;;;;;;;;;5078225;28;1107;-79
2022/12/09 15:25:22;;;;;;;;;;;;;;;;;;5078603;28;1075;-78
2022/12/09 15:27:48;;;;;;;;;;;;;;;;;;5077427;28;916;-79
2022/12/09 15:30:14;;;;;;;;;;;;;;;;;;5077708;28;1424;-80
2022/12/09 15:32:40;;;;;;;;;;;;;;;;;;5076495;28;1906;-79
2022/12/09 15:35:06;;;;;;;;;;;;;;;;;;5077548;28;1028;-79
2022/12/09 15:37:32;;;;;;;;;;;;;;;;;;5078340;28;853;-79
2022/12/09 15:39:59;;;;;;;;;;;;;;;;;;5076831;28;1142;-80
2022/12/09 15:42:26;;;;;;;;;;;;;;;;;;5077261;28;1325;-79
2022/12/09 15:44:52;;;;;;;;;;;;;;;;;;5077377;28;1068;-79
2022/12/09 15:47:18;;;;;;;;;;;;;;;;;;5077795;28;929;-79
2022/12/09 15:49:45;;;;;;;;;;;;;;;;;;5040704;28;1138;-78
2022/12/09 15:52:11;;;;;;;;;;;;;;;;;;5008420;28;1934;-75
2022/12/09 15:54:37;;;;;;;;;;;;;;;;;;5007131;28;929;-76
2022/12/09 15:57:08;;;;;;;;;;;;;;;;;;5001934;28;1359;-75
2022/12/09 15:59:34;;;;;;;;;;;;;;;;;;4995000;28;900;-76
2022/12/09 16:02:01;;;;;;;;;;;;;;;;;;4991836;28;1309;-76
2022/12/09 16:04:27;;;;;;;;;;;;;;;;;;4985534;28;762;-78
2022/12/09 16:06:55;;;;;;;;;;;;;;;;;;4989367;28;857;-76
2022/12/09 16:09:22;;;;;;;;;;;;;;;;;;4989721;28;961;-78
2022/12/09 16:11:49;;;;;;;;;;;;;;;;;;4991812;28;1985;-77
2022/12/09 16:14:15;;;;;;;;;;;;;;;;;;5012016;28;961;-78
2022/12/09 16:16:41;;;;;;;;;;;;;;;;;;4989892;28;924;-76
2022/12/09 16:19:07;;;;;;;;;;;;;;;;;;4992601;28;1129;-76
2022/12/09 16:21:34;;;;;;;;;;;;;;;;;;4983390;28;1384;-78
2022/12/09 16:24:00;;;;;;;;;;;;;;;;;;5004960;28;955;-78
2022/12/09 16:26:26;;;;;;;;;;;;;;;;;;5019229;28;921;-79
2022/12/09 16:28:53;;;;;;;;;;;;;;;;;;5012793;28;977;-78
2022/12/09 16:31:19;;;;;;;;;;;;;;;;;;5027765;28;1321;-77
2022/12/09 16:33:47;;;;;;;;;;;;;;;;;;5028192;28;1914;-77
2022/12/09 16:36:14;;;;;;;;;;;;;;;;;;5022593;28;932;-77
2022/12/09 16:38:40;;;;;;;;;;;;;;;;;;5011438;28;1559;-78
2022/12/09 16:41:06;;;;;;;;;;;;;;;;;;5009516;28;1581;-78
2022/12/09 16:43:33;;;;;;;;;;;;;;;;;;5012676;28;1129;-77
2022/12/09 16:45:59;;;;;;;;;;;;;;;;;;5012492;28;970;-78
2022/12/09 16:48:25;;;;;;;;;;;;;;;;;;5011935;28;770;-79
2022/12/09 16:50:52;;;;;;;;;;;;;;;;;;5010813;28;1345;-77
2022/12/09 16:53:18;;;;;;;;;;;;;;;;;;5013410;28;2001;-77
2022/12/09 16:55:46;;;;;;;;;;;;;;;;;;5023257;28;1732;-77
2022/12/09 16:58:13;;;;;;;;;;;;;;;;;;5037676;28;852;-78
2022/12/09 17:00:39;;;;;;;;;;;;;;;;;;5064891;28;1419;-79
2022/12/09 17:03:05;;;;;;;;;;;;;;;;;;5071107;28;1400;-77